Time;durP1;ratioP1;P1;durP2;ratioP2;P2;SDS_P1;SDS_P2;PMS_P1;PMS_P2;Temp;Humidity;BMP_temperature;BMP_pressure;BME280_temperature;BME280_humidity;BME280_pressure;Samples;Min_cycle;Max_cycle;Signal;HPM_P1;HPM_P2
2022/06/30 00:03:24;;;;;;;9.00;5.97;;;;;;;20.40;100.00;99976.75;2811213;83;21042;-84
2022/06/30 00:07:26;;;;;;;8.55;5.37;;;;;;;20.36;100.00;99939.84;2821653;83;21682;-84
2022/06/30 00:11:27;;;;;;;6.92;5.03;;;;;;;20.29;100.00;99940.33;2820934;83;21047;-84
2022/06/30 00:15:29;;;;;;;5.72;4.75;;;;;;;20.31;100.00;99934.20;2819055;83;21082;-84
2022/06/30 00:19:30;;;;;;;10.78;7.15;;;;;;;20.36;100.00;99945.77;2820778;83;21054;-84
2022/06/30 00:23:32;;;;;;;7.85;6.10;;;;;;;20.34;100.00;99972.97;2820532;83;21007;-84
2022/06/30 00:27:33;;;;;;;7.40;6.37;;;;;;;20.30;100.00;100012.21;2777317;85;21037;-84
2022/06/30 00:31:36;;;;;;;12.07;6.15;;;;;;;20.36;100.00;99992.50;2778088;83;21019;-84
2022/06/30 00:35:37;;;;;;;5.80;4.85;;;;;;;20.41;100.00;99973.83;2819256;83;21083;-84
2022/06/30 00:39:39;;;;;;;8.50;5.35;;;;;;;20.43;100.00;100053.33;2817912;83;21078;-84
2022/06/30 00:43:48;;;;;;;6.65;6.03;;;;;;;20.47;100.00;100013.27;2821595;83;21043;-84
2022/06/30 00:47:49;;;;;;;9.58;7.03;;;;;;;20.52;100.00;100002.69;2820103;83;20976;-84
2022/06/30 00:51:51;;;;;;;12.37;7.70;;;;;;;20.58;100.00;100010.52;2819742;83;21019;-84
2022/06/30 00:55:55;;;;;;;12.03;9.58;;;;;;;20.63;100.00;100025.62;2805953;83;20984;-84
2022/06/30 00:59:58;;;;;;;35.08;20.32;;;;;;;20.61;100.00;100008.23;2820528;83;21408;-84
2022/06/30 01:04:00;;;;;;;10.45;7.03;;;;;;;20.60;100.00;100022.78;2815116;83;21591;-84
2022/06/30 01:08:04;;;;;;;6.50;5.75;;;;;;;20.60;100.00;100011.97;2815937;83;21043;-85
2022/06/30 01:16:26;;;;;;;8.15;6.33;;;;;;;20.55;100.00;99978.82;2815432;83;21538;-84
2022/06/30 01:20:31;;;;;;;9.10;5.00;;;;;;;20.54;100.00;99968.20;2815596;83;21071;-85
2022/06/30 01:24:32;;;;;;;11.73;6.20;;;;;;;20.47;100.00;99936.27;2806272;83;21098;-83
2022/06/30 01:28:34;;;;;;;7.10;4.03;;;;;;;20.44;100.00;99912.33;2795335;84;22353;-84
2022/06/30 01:32:35;;;;;;;10.55;4.78;;;;;;;20.30;100.00;99892.03;2813249;83;21027;-84
2022/06/30 01:36:37;;;;;;;10.13;5.08;;;;;;;20.17;100.00;99841.49;2811493;84;21074;-84
2022/06/30 01:40:39;;;;;;;3.85;3.42;;;;;;;20.14;100.00;99828.90;2813069;83;21015;-84
2022/06/30 01:44:40;;;;;;;11.03;4.20;;;;;;;20.07;100.00;99848.61;2807003;83;20984;-84
2022/06/30 01:48:42;;;;;;;7.85;5.08;;;;;;;20.06;100.00;99887.44;2811095;83;21070;-84
2022/06/30 01:52:44;;;;;;;12.45;7.78;;;;;;;20.03;100.00;99933.70;2790443;83;21043;-84
2022/06/30 01:56:46;;;;;;;15.70;7.12;;;;;;;20.03;100.00;99943.14;2801353;83;21027;-84
2022/06/30 02:00:47;;;;;;;11.48;6.62;;;;;;;20.02;100.00;99945.53;2807162;83;21031;-84
2022/06/30 02:04:53;;;;;;;7.47;6.75;;;;;;;20.09;100.00;99931.58;2814902;83;21058;-84
2022/06/30 02:08:52;;;;;;;11.90;5.97;;;;;;;20.12;100.00;99919.03;2800435;83;20991;-85
2022/06/30 02:12:54;;;;;;;9.75;6.25;;;;;;;20.21;100.00;99918.36;2811254;83;21000;-84
2022/06/30 02:16:55;;;;;;;6.75;6.08;;;;;;;20.32;100.00;99912.06;2812371;83;21066;-84
2022/06/30 02:20:58;;;;;;;6.65;4.95;;;;;;;20.38;100.00;99870.24;2788216;83;21074;-84
2022/06/30 02:24:59;;;;;;;6.83;5.12;;;;;;;20.45;100.00;99868.11;2812195;84;20984;-84
2022/06/30 02:29:03;;;;;;;5.65;4.53;;;;;;;20.55;100.00;99867.20;2815500;83;21039;-84
2022/06/30 02:33:04;;;;;;;7.17;3.60;;;;;;;20.61;100.00;99911.50;2809564;83;21031;-84
2022/06/30 02:37:06;;;;;;;4.25;3.45;;;;;;;20.68;100.00;99911.84;2814040;83;21082;-84
2022/06/30 02:41:07;;;;;;;6.25;4.12;;;;;;;20.76;100.00;99927.55;2816003;83;21023;-84
2022/06/30 02:45:10;;;;;;;4.10;3.37;;;;;;;20.90;100.00;99945.53;2812610;83;21099;-84
2022/06/30 02:49:11;;;;;;;6.25;3.45;;;;;;;21.00;100.00;99940.25;2810526;83;21318;-84
2022/06/30 02:53:13;;;;;;;6.78;4.22;;;;;;;21.09;100.00;99941.75;2801112;84;21054;-85
2022/06/30 02:57:14;;;;;;;5.12;3.27;;;;;;;21.18;100.00;99949.97;2799965;83;21071;-85
2022/06/30 03:01:16;;;;;;;5.40;3.40;;;;;;;21.19;100.00;99946.23;2771583;83;21021;-85
2022/06/30 03:05:18;;;;;;;6.00;2.83;;;;;;;21.10;100.00;99938.82;2775698;84;21051;-85
2022/06/30 03:09:19;;;;;;;3.15;2.80;;;;;;;21.06;100.00;99946.22;2795604;83;21047;-85
2022/06/30 03:13:21;;;;;;;4.65;3.02;;;;;;;21.04;100.00;99947.75;2815741;83;21043;-85
2022/06/30 03:17:23;;;;;;;5.03;3.27;;;;;;;20.83;100.00;99959.02;2806917;83;21070;-86
2022/06/30 03:21:24;;;;;;;6.42;3.65;;;;;;;20.70;100.00;99975.13;2773294;83;21016;-85
2022/06/30 03:25:25;;;;;;;8.55;4.40;;;;;;;20.54;100.00;99977.66;2813576;83;21504;-85
2022/06/30 03:29:27;;;;;;;7.45;3.87;;;;;;;20.25;100.00;99982.27;2809714;83;21086;-86
2022/06/30 03:33:28;;;;;;;6.90;5.50;;;;;;;20.09;100.00;99973.92;2813642;83;21349;-85
2022/06/30 03:37:30;;;;;;;10.38;4.78;;;;;;;19.94;100.00;99976.20;2814013;83;21071;-85
2022/06/30 03:41:32;;;;;;;8.50;5.45;;;;;;;19.81;100.00;99989.56;2740596;84;21301;-85
2022/06/30 03:45:35;;;;;;;9.33;5.75;;;;;;;19.90;100.00;99995.13;2793166;84;21023;-85
2022/06/30 03:49:36;;;;;;;18.45;8.03;;;;;;;19.91;100.00;99992.78;2748834;83;21582;-85
2022/06/30 03:53:39;;;;;;;8.70;6.58;;;;;;;19.97;100.00;100000.13;2814412;83;21035;-85
2022/06/30 03:57:40;;;;;;;10.50;7.30;;;;;;;20.15;100.00;100004.72;2812320;84;21507;-85
2022/06/30 04:01:42;;;;;;;11.22;7.47;;;;;;;20.32;100.00;100008.80;2800198;83;21062;-85
2022/06/30 04:05:43;;;;;;;8.55;6.55;;;;;;;20.46;100.00;100001.61;2810745;83;21047;-85
2022/06/30 04:09:45;;;;;;;12.40;6.20;;;;;;;20.55;100.00;100006.34;2804729;81;21584;-86
2022/06/30 04:13:46;;;;;;;7.62;6.10;;;;;;;20.62;100.00;100007.20;2810517;83;21027;-86
2022/06/30 04:17:48;;;;;;;9.03;5.90;;;;;;;20.71;100.00;100007.06;2813929;83;21102;-86
2022/06/30 04:21:50;;;;;;;6.20;5.28;;;;;;;20.81;100.00;100000.28;2807765;83;21015;-86
2022/06/30 04:25:51;;;;;;;10.72;7.28;;;;;;;20.85;100.00;100008.84;2797822;83;21165;-86
2022/06/30 04:29:53;;;;;;;12.10;7.25;;;;;;;20.88;100.00;100011.13;2814852;83;21000;-86
2022/06/30 04:33:54;;;;;;;8.10;6.20;;;;;;;21.01;100.00;100008.16;2814492;83;21027;-89
2022/06/30 04:38:03;;;;;;;12.13;7.55;;;;;;;21.37;100.00;99994.86;2794807;83;21609;-86
2022/06/30 04:42:05;;;;;;;12.25;7.45;;;;;;;21.45;100.00;99991.13;2815984;83;21400;-85
2022/06/30 04:46:06;;;;;;;11.08;8.53;;;;;;;21.34;100.00;99992.56;2807994;83;21035;-86
2022/06/30 04:50:09;;;;;;;11.75;8.10;;;;;;;21.66;100.00;100013.18;2810252;83;21050;-85
2022/06/30 04:54:10;;;;;;;13.28;8.18;;;;;;;22.38;100.00;100001.72;2817164;83;21019;-85
2022/06/30 04:58:12;;;;;;;10.15;7.17;;;;;;;22.97;100.00;99999.08;2808982;84;20995;-87
2022/06/30 05:02:13;;;;;;;13.10;7.97;;;;;;;23.45;100.00;99992.39;2803326;84;21023;-87
2022/06/30 05:06:15;;;;;;;9.95;6.20;;;;;;;24.18;100.00;99986.11;2793017;83;21019;-87
2022/06/30 05:10:16;;;;;;;10.65;6.40;;;;;;;24.79;100.00;99982.80;2810463;84;21059;-87
2022/06/30 05:14:18;;;;;;;7.90;6.42;;;;;;;25.22;100.00;99991.34;2762463;84;21019;-87
2022/06/30 05:18:20;;;;;;;8.75;4.37;;;;;;;25.50;100.00;99993.19;2808464;83;21003;-87
2022/06/30 05:22:21;;;;;;;7.83;4.70;;;;;;;26.03;100.00;99977.87;2810427;83;21503;-87
2022/06/30 05:26:29;;;;;;;8.30;4.72;;;;;;;26.32;95.24;99983.45;2796514;84;21011;-87
2022/06/30 05:30:30;;;;;;;6.15;4.72;;;;;;;26.59;92.46;99985.70;2810038;83;21000;-87
2022/06/30 05:34:33;;;;;;;6.55;3.17;;;;;;;26.88;95.42;99977.58;2811409;84;21030;-87
2022/06/30 05:38:34;;;;;;;6.22;4.50;;;;;;;27.28;91.97;99970.96;2807574;83;21023;-87
2022/06/30 05:42:36;;;;;;;8.00;4.25;;;;;;;27.67;88.27;99958.83;2810878;83;21006;-87
2022/06/30 05:46:37;;;;;;;8.33;4.45;;;;;;;27.84;86.42;99960.22;2808476;83;21035;-87
2022/06/30 05:50:39;;;;;;;7.80;4.12;;;;;;;28.04;87.78;99961.06;2810102;83;21059;-87
2022/06/30 05:54:40;;;;;;;5.08;3.50;;;;;;;28.27;83.74;99963.33;2810619;84;21055;-87
2022/06/30 05:58:42;;;;;;;7.55;2.72;;;;;;;28.23;82.36;99958.08;2807668;84;20984;-87
2022/06/30 06:02:43;;;;;;;4.65;3.25;;;;;;;28.34;82.04;99970.83;2804550;84;21059;-87
2022/06/30 06:06:45;;;;;;;8.13;3.10;;;;;;;28.43;78.78;99974.48;2800340;83;21031;-87
2022/06/30 06:10:46;;;;;;;10.90;3.15;;;;;;;27.94;74.57;99980.86;2813235;84;21051;-86
2022/06/30 06:14:48;;;;;;;5.12;4.17;;;;;;;27.72;78.06;99981.32;2813368;83;21098;-86
2022/06/30 06:18:50;;;;;;;5.00;3.08;;;;;;;27.75;78.48;99985.77;2817533;83;21075;-86
2022/06/30 06:22:51;;;;;;;9.85;4.60;;;;;;;27.82;81.00;99985.60;2815280;83;21035;-86
2022/06/30 06:26:53;;;;;;;18.52;3.70;;;;;;;28.05;80.21;99979.67;2814409;83;21027;-86
2022/06/30 06:30:54;;;;;;;4.62;2.98;;;;;;;28.01;77.09;99975.23;2814998;83;21554;-86
2022/06/30 06:34:56;;;;;;;5.55;3.58;;;;;;;27.96;74.96;99975.16;2815283;83;21046;-86
2022/06/30 06:38:57;;;;;;;4.53;3.98;;;;;;;28.03;76.00;99973.07;2793893;83;21105;-86
2022/06/30 06:42:59;;;;;;;3.33;2.98;;;;;;;27.84;73.63;99968.94;2817319;83;21535;-87
2022/06/30 06:47:02;;;;;;;5.12;4.62;;;;;;;27.65;75.09;99980.11;2806651;83;29709;-87
2022/06/30 06:51:03;;;;;;;5.42;3.08;;;;;;;27.57;78.14;99985.99;2803806;83;21083;-86
2022/06/30 06:55:06;;;;;;;14.50;3.67;;;;;;;27.68;73.84;99983.71;2817137;84;21082;-87
2022/06/30 06:59:07;;;;;;;6.20;3.52;;;;;;;27.65;73.92;99976.02;2812089;83;21050;-87
2022/06/30 07:03:09;;;;;;;5.60;4.28;;;;;;;27.55;76.51;99976.67;2810789;84;21011;-86
2022/06/30 07:07:10;;;;;;;8.73;4.17;;;;;;;27.68;75.00;99975.52;2805278;84;20984;-87
2022/06/30 07:11:12;;;;;;;4.95;4.20;;;;;;;27.67;77.25;99975.23;2788016;84;21075;-87
2022/06/30 07:15:14;;;;;;;6.28;5.22;;;;;;;28.03;75.27;99975.80;2808605;84;21039;-87
2022/06/30 07:19:16;;;;;;;5.72;3.67;;;;;;;28.51;74.16;99974.06;2811095;83;21047;-87
2022/06/30 07:23:17;;;;;;;4.97;4.47;;;;;;;28.83;73.33;99972.57;2803441;83;21038;-87
2022/06/30 07:27:19;;;;;;;6.58;4.70;;;;;;;29.02;72.85;99962.09;2808991;83;21035;-87
2022/06/30 07:31:21;;;;;;;5.85;4.47;;;;;;;29.21;71.49;99963.95;2812403;83;21008;-86
2022/06/30 07:35:23;;;;;;;9.78;6.28;;;;;;;29.25;72.08;99966.45;2810419;83;21000;-87
2022/06/30 07:39:24;;;;;;;5.53;4.33;;;;;;;29.37;70.69;99966.30;2796743;84;21068;-87
2022/06/30 07:43:27;;;;;;;14.60;6.00;;;;;;;29.19;72.44;99971.05;2781823;83;21043;-87
2022/06/30 07:47:28;;;;;;;8.85;5.22;;;;;;;28.97;72.40;99944.25;2808414;83;21011;-87
2022/06/30 07:51:30;;;;;;;12.00;5.72;;;;;;;29.30;71.02;99976.64;2809034;83;21020;-87
2022/06/30 07:55:31;;;;;;;10.03;5.28;;;;;;;29.86;69.72;99965.36;2804572;83;21008;-87
2022/06/30 07:59:32;;;;;;;10.60;6.10;;;;;;;29.86;69.72;99965.36;2805215;83;21078;-87
2022/06/30 08:03:44;;;;;;;7.12;6.03;;;;;;;30.05;66.98;99956.75;2804891;84;21060;-87
2022/06/30 08:07:46;;;;;;;10.80;6.87;;;;;;;30.37;66.65;99950.89;2815318;83;21028;-87
2022/06/30 08:11:47;;;;;;;11.08;6.83;;;;;;;29.98;68.91;99932.27;2768557;83;21048;-87
2022/06/30 08:15:49;;;;;;;7.45;6.53;;;;;;;30.35;67.82;99930.05;2817031;83;21031;-87
2022/06/30 08:19:51;;;;;;;10.48;6.45;;;;;;;30.54;65.12;99930.11;2810779;83;21697;-87
2022/06/30 08:23:53;;;;;;;10.78;7.37;;;;;;;30.81;70.45;99939.57;2797370;84;21617;-88
2022/06/30 08:27:54;;;;;;;7.58;6.58;;;;;;;30.86;65.91;99945.09;2816755;83;21031;-87
2022/06/30 08:31:56;;;;;;;8.53;7.65;;;;;;;30.38;65.11;99948.43;2814542;83;21161;-87
2022/06/30 08:35:57;;;;;;;6.80;5.58;;;;;;;30.18;67.32;99949.97;2808805;83;21035;-87
2022/06/30 08:44:19;;;;;;;7.00;6.40;;;;;;;30.12;66.75;99950.48;2815296;83;21059;-88
2022/06/30 08:48:21;;;;;;;8.15;7.25;;;;;;;30.22;67.56;99942.86;2816402;83;21548;-87
2022/06/30 08:52:25;;;;;;;10.50;7.40;;;;;;;30.31;66.44;99940.44;2816222;83;21043;-87
2022/06/30 08:56:34;;;;;;;7.90;7.10;;;;;;;30.17;65.18;99942.30;2815058;83;21078;-87
2022/06/30 09:00:37;;;;;;;7.17;6.58;;;;;;;29.89;66.46;99940.72;2816459;84;21016;-87
2022/06/30 09:04:38;;;;;;;7.83;7.12;;;;;;;29.67;68.61;99930.67;2816297;84;21074;-88
2022/06/30 09:08:39;;;;;;;7.65;6.58;;;;;;;29.62;70.25;99938.33;2805880;84;20988;-88
2022/06/30 09:13:03;;;;;;;9.25;8.43;;;;;;;29.49;70.62;99928.64;2808875;84;21019;-88
2022/06/30 09:17:09;;;;;;;8.90;7.40;;;;;;;29.44;69.10;99939.53;2809232;84;21063;-87
2022/06/30 09:21:17;;;;;;;9.73;7.92;;;;;;;29.58;71.26;99939.11;2807164;83;21076;-88
2022/06/30 09:25:22;;;;;;;8.85;7.85;;;;;;;29.79;68.75;99932.69;2811522;83;21032;-88
2022/06/30 09:29:22;;;;;;;8.63;7.78;;;;;;;30.24;67.42;99928.89;2773890;84;21023;-88
2022/06/30 09:33:29;;;;;;;9.90;7.53;;;;;;;30.35;67.16;99929.20;2797432;84;21032;-87
2022/06/30 09:37:30;;;;;;;6.67;6.08;;;;;;;30.46;68.51;99931.45;2809988;83;21051;-87
2022/06/30 09:41:35;;;;;;;8.13;7.33;;;;;;;30.82;67.90;99922.00;2808621;84;21043;-87
2022/06/30 09:45:42;;;;;;;14.83;13.20;;;;;;;30.94;66.08;99927.81;2810645;84;21035;-88
2022/06/30 09:49:47;;;;;;;10.32;7.75;;;;;;;31.20;65.73;99929.52;2810159;84;21032;-88
2022/06/30 09:54:08;;;;;;;;;;;;;;;31.45;65.78;99928.45;2812522;84;21070;-88
2022/06/30 09:58:16;;;;;;;5.90;5.28;;;;;;;31.59;64.09;99921.31;2810843;83;20117;-88
2022/06/30 10:02:18;;;;;;;7.92;5.83;;;;;;;31.45;61.96;99912.80;2809094;83;20988;-88
2022/06/30 10:06:19;;;;;;;6.53;5.85;;;;;;;31.54;63.43;99910.86;2800888;83;21012;-88
2022/06/30 10:10:20;;;;;;;8.35;7.53;;;;;;;31.74;63.56;99906.72;2813719;83;21039;-88
2022/06/30 10:14:27;;;;;;;10.20;6.58;;;;;;;31.76;61.79;99901.77;2821482;83;21737;-88
2022/06/30 10:18:29;;;;;;;5.97;5.42;;;;;;;31.91;62.33;99894.63;2819587;83;21049;-88
2022/06/30 10:22:31;;;;;;;6.95;6.25;;;;;;;31.70;61.23;99902.88;2821461;83;21000;-88
2022/06/30 10:31:20;;;;;;;9.90;4.97;;;;;;;31.66;62.41;99887.21;2800179;84;21051;-87
2022/06/30 10:35:48;;;;;;;6.83;4.80;;;;;;;31.76;62.94;99889.39;2813590;84;21034;-88
2022/06/30 10:40:04;;;;;;;8.00;5.22;;;;;;;31.80;58.80;99886.95;2819669;83;21058;-88
2022/06/30 10:44:09;;;;;;;5.87;4.15;;;;;;;31.96;60.01;99891.05;2819345;83;21046;-88
2022/06/30 10:48:11;;;;;;;6.00;4.62;;;;;;;31.84;59.37;99888.60;2823480;83;21027;-88
2022/06/30 10:52:24;;;;;;;7.40;5.17;;;;;;;31.73;61.09;99887.20;2823156;83;21274;-88
2022/06/30 10:56:57;;;;;;;4.67;4.28;;;;;;;31.54;62.37;99880.63;2809044;84;21393;-88
2022/06/30 11:01:05;;;;;;;5.05;4.50;;;;;;;31.36;61.23;99877.34;2813412;83;21047;-87
2022/06/30 11:05:25;;;;;;;7.53;4.85;;;;;;;31.38;61.24;99881.20;2816456;83;21022;-88
2022/06/30 11:09:50;;;;;;;4.83;4.03;;;;;;;31.28;60.71;99886.14;2817300;84;21067;-89
2022/06/30 11:14:07;;;;;;;6.35;4.87;;;;;;;31.30;61.19;99886.13;2802063;83;20980;-88
2022/06/30 11:18:09;;;;;;;4.62;4.15;;;;;;;31.45;60.65;99881.20;2821293;83;21055;-87
2022/06/30 11:22:19;;;;;;;3.58;2.77;;;;;;;31.79;59.57;99881.18;2819872;84;21020;-88
2022/06/30 11:30:40;;;;;;;4.30;2.75;;;;;;;32.00;59.02;99880.56;2820417;83;20988;-88
2022/06/30 11:34:41;;;;;;;4.30;2.37;;;;;;;31.72;58.44;99874.56;2807572;83;20984;-88
2022/06/30 11:38:42;;;;;;;7.78;4.33;;;;;;;31.58;59.67;99878.97;2820209;83;20968;-87
2022/06/30 11:42:44;;;;;;;6.12;3.62;;;;;;;31.85;60.79;99879.25;2821318;83;21031;-88
2022/06/30 11:47:04;;;;;;;3.05;2.75;;;;;;;32.11;59.98;99873.09;2821444;83;20996;-88
2022/06/30 11:51:11;;;;;;;3.00;2.70;;;;;;;32.41;58.85;99874.66;2788892;83;21055;-88
2022/06/30 11:55:12;;;;;;;3.47;2.70;;;;;;;32.77;59.64;99873.09;2814251;83;21031;-88
2022/06/30 11:59:14;;;;;;;4.92;2.40;;;;;;;32.88;56.31;99870.58;2820177;83;22769;-88
2022/06/30 12:03:15;;;;;;;3.00;2.80;;;;;;;33.15;58.36;99869.27;2819531;83;21024;-88
2022/06/30 12:07:18;;;;;;;3.83;2.47;;;;;;;33.32;55.77;99873.01;2816654;83;21023;-89
2022/06/30 12:11:20;;;;;;;2.60;2.08;;;;;;;33.39;53.88;99865.77;2810079;83;20992;-88
2022/06/30 12:15:23;;;;;;;2.05;1.72;;;;;;;33.39;52.57;99868.52;2815034;83;21067;-87
2022/06/30 12:19:25;;;;;;;4.95;2.35;;;;;;;33.35;50.16;99866.08;2802732;83;21051;-88
2022/06/30 12:23:27;;;;;;;2.62;2.40;;;;;;;33.43;51.52;99859.16;2761679;84;21015;-88
2022/06/30 12:27:33;;;;;;;3.47;3.12;;;;;;;33.56;53.00;99853.52;2815204;83;21055;-88
2022/06/30 12:31:35;;;;;;;2.67;2.47;;;;;;;33.65;55.40;99864.73;2809286;83;21012;-88
2022/06/30 12:35:38;;;;;;;3.08;2.83;;;;;;;33.62;53.91;99859.27;2776827;83;21039;-88
2022/06/30 12:39:45;;;;;;;2.77;2.57;;;;;;;33.52;53.30;99857.97;2817315;83;21056;-88
2022/06/30 12:43:52;;;;;;;3.25;2.90;;;;;;;33.41;52.27;99847.03;2816383;83;21083;-88
2022/06/30 12:47:53;;;;;;;3.10;2.67;;;;;;;33.54;51.87;99847.47;2811139;83;21039;-89
2022/06/30 12:51:54;;;;;;;3.02;2.83;;;;;;;33.67;52.68;99841.82;2816375;84;21047;-89
2022/06/30 12:56:07;;;;;;;5.83;3.12;;;;;;;33.45;52.90;99840.39;2782321;83;21046;-89
2022/06/30 13:00:10;;;;;;;4.70;3.15;;;;;;;33.31;52.67;99830.58;2816445;83;21054;-89
2022/06/30 13:04:27;;;;;;;2.90;2.65;;;;;;;33.40;52.04;99837.08;2798633;84;21107;-88
2022/06/30 13:08:28;;;;;;;4.20;2.85;;;;;;;33.45;52.51;99819.17;2793372;84;21075;-88
2022/06/30 13:12:30;;;;;;;6.17;2.33;;;;;;;33.51;53.73;99822.70;2815282;83;20979;-88
2022/06/30 13:16:32;;;;;;;4.70;3.10;;;;;;;33.63;53.56;99821.47;2815982;83;21070;-89
2022/06/30 13:20:33;;;;;;;3.25;2.95;;;;;;;33.89;52.71;99815.91;2816427;83;21043;-87
2022/06/30 13:24:35;;;;;;;3.15;2.85;;;;;;;34.07;52.52;99821.80;2809900;83;21027;-88
2022/06/30 13:28:37;;;;;;;3.33;3.00;;;;;;;34.30;52.97;99815.19;2810241;84;21018;-88
2022/06/30 13:32:38;;;;;;;3.37;3.10;;;;;;;34.41;51.21;99813.10;2803932;84;20995;-88
2022/06/30 13:36:41;;;;;;;5.92;3.17;;;;;;;34.50;51.13;99811.91;2823040;83;21031;-88
2022/06/30 13:40:43;;;;;;;4.00;3.60;;;;;;;34.60;49.88;99801.53;2813603;84;21047;-87
2022/06/30 13:44:45;;;;;;;4.10;2.58;;;;;;;34.65;50.44;99803.95;2812861;83;21007;-87
2022/06/30 13:48:46;;;;;;;3.42;2.75;;;;;;;34.72;49.60;99803.83;2822743;83;20968;-89
2022/06/30 13:52:48;;;;;;;6.08;3.10;;;;;;;34.44;48.80;99798.70;2800443;83;21018;-86
2022/06/30 13:56:50;;;;;;;4.25;3.12;;;;;;;34.36;49.71;99803.49;2811787;83;21000;-87
2022/06/30 14:00:52;;;;;;;3.02;2.75;;;;;;;34.51;49.85;99793.64;2814841;83;21090;-87
2022/06/30 14:04:54;;;;;;;5.15;3.67;;;;;;;34.50;51.16;99782.34;2810782;83;21054;-88
2022/06/30 14:08:55;;;;;;;5.55;4.00;;;;;;;34.64;51.27;99781.59;2810621;83;21003;-87
2022/06/30 14:13:08;;;;;;;3.52;2.87;;;;;;;34.93;50.75;99776.42;2807794;83;21027;-87
2022/06/30 14:17:09;;;;;;;4.35;2.72;;;;;;;35.05;49.14;99778.19;2808708;83;21131;-88
2022/06/30 14:21:11;;;;;;;4.50;3.42;;;;;;;35.14;48.55;99770.81;2809675;83;21049;-88
2022/06/30 14:25:12;;;;;;;4.12;3.70;;;;;;;34.95;49.27;99775.55;2809695;83;21039;-88
2022/06/30 14:29:14;;;;;;;5.45;3.83;;;;;;;34.95;48.11;99775.00;2801832;83;21013;-86
2022/06/30 14:33:15;;;;;;;3.87;3.47;;;;;;;34.61;47.83;99773.34;2808554;83;21015;-88
2022/06/30 14:37:17;;;;;;;4.70;3.40;;;;;;;34.36;48.28;99772.59;2795601;83;21023;-88
2022/06/30 14:42:43;;;;;;;4.00;3.17;;;;;;;34.19;47.52;99774.46;2809200;84;21126;-88
2022/06/30 14:45:25;;;;;;;4.10;3.70;;;;;;;34.25;47.84;99771.08;2807073;84;21591;-90
2022/06/30 14:49:26;;;;;;;3.90;3.55;;;;;;;34.31;48.04;99778.99;2808602;84;21023;-90
2022/06/30 14:53:28;;;;;;;11.60;4.17;;;;;;;34.40;49.11;99772.81;2805013;83;21050;-90
2022/06/30 14:57:30;;;;;;;4.55;3.42;;;;;;;34.44;49.10;99766.95;2810000;84;21043;-89
2022/06/30 15:01:32;;;;;;;4.45;2.90;;;;;;;34.43;50.76;99765.31;2808257;84;21058;-89
2022/06/30 15:05:33;;;;;;;8.15;3.95;;;;;;;34.49;49.58;99762.76;2807992;83;21054;-90
2022/06/30 15:09:34;;;;;;;5.78;3.35;;;;;;;34.55;50.58;99761.55;2819276;83;21114;-90
2022/06/30 15:13:36;;;;;;;6.37;3.00;;;;;;;34.49;48.91;99757.75;2821767;83;21055;-90
2022/06/30 15:17:37;;;;;;;9.98;3.02;;;;;;;34.50;48.10;99757.50;2815794;83;21122;-90
2022/06/30 15:25:58;;;;;;;6.15;3.08;;;;;;;34.58;49.73;99754.05;2820629;84;21055;-89
2022/06/30 15:29:59;;;;;;;4.25;3.58;;;;;;;34.40;50.19;99753.50;2822949;83;21016;-90
2022/06/30 15:34:02;;;;;;;3.80;3.27;;;;;;;34.16;50.28;99752.44;2821450;83;21055;-89
2022/06/30 15:38:36;;;;;;;5.28;2.90;;;;;;;33.98;49.70;99749.91;2817097;83;20991;-89
2022/06/30 15:42:41;;;;;;;6.20;4.00;;;;;;;33.71;51.07;99745.02;2821477;84;21058;-91
2022/06/30 15:46:42;;;;;;;7.75;6.78;;;;;;;33.32;50.72;99749.55;2822580;83;21531;-90
2022/06/30 15:50:43;;;;;;;6.20;3.90;;;;;;;33.29;51.84;99754.27;2816313;83;21031;-90
2022/06/30 15:54:44;;;;;;;4.20;3.47;;;;;;;33.44;53.00;99749.17;2822639;83;20984;-90
2022/06/30 15:58:46;;;;;;;6.45;3.70;;;;;;;33.61;51.86;99745.39;2822932;83;21114;-89
2022/06/30 16:02:47;;;;;;;4.75;3.72;;;;;;;33.70;51.13;99737.28;2806180;83;21094;-88
2022/06/30 16:06:49;;;;;;;6.95;3.87;;;;;;;33.80;50.17;99737.72;2821787;83;21050;-91
2022/06/30 16:10:53;;;;;;;3.60;3.27;;;;;;;33.97;51.85;99732.30;2812762;83;21043;-89
2022/06/30 16:14:56;;;;;;;3.98;3.05;;;;;;;34.07;50.23;99727.20;2778881;83;21035;-87
2022/06/30 16:18:58;;;;;;;4.37;3.97;;;;;;;34.22;50.77;99729.73;2794414;83;20991;-88
2022/06/30 16:22:59;;;;;;;3.20;2.65;;;;;;;34.29;50.32;99728.80;2793548;84;21047;-88
2022/06/30 16:27:01;;;;;;;4.35;3.85;;;;;;;34.33;49.43;99728.45;2793150;83;21588;-91
2022/06/30 16:31:02;;;;;;;7.50;3.27;;;;;;;34.40;50.95;99732.80;2797954;84;21569;-92
2022/06/30 16:35:04;;;;;;;4.00;3.08;;;;;;;34.49;50.72;99726.87;2809245;83;21082;-92
2022/06/30 16:39:05;;;;;;;5.90;3.55;;;;;;;34.46;49.71;99723.30;2764329;84;21026;-92
2022/06/30 16:43:07;;;;;;;3.27;2.72;;;;;;;34.44;48.65;99715.89;2743458;84;21036;-93
2022/06/30 16:47:14;;;;;;;5.58;3.42;;;;;;;34.44;48.87;99716.69;2792975;84;21062;-91
2022/06/30 16:51:15;;;;;;;3.58;3.20;;;;;;;34.31;48.59;99711.95;2800146;83;21011;-92
2022/06/30 16:55:16;;;;;;;4.25;3.83;;;;;;;34.16;49.31;99708.84;2815645;83;21027;-89
2022/06/30 16:59:18;;;;;;;3.40;3.10;;;;;;;34.00;48.96;99700.81;2813747;83;21563;-88
2022/06/30 17:03:18;;;;;;;4.10;3.20;;;;;;;33.92;48.92;99695.91;2816893;83;21515;-89
2022/06/30 17:07:20;;;;;;;3.92;3.12;;;;;;;33.79;50.37;99698.02;2813234;83;21128;-89
2022/06/30 17:11:22;;;;;;;3.60;3.22;;;;;;;33.57;50.72;99693.88;2808108;83;21043;-88
2022/06/30 17:15:23;;;;;;;4.92;2.95;;;;;;;33.42;50.16;99690.19;2810913;84;21524;-90
2022/06/30 17:19:24;;;;;;;6.12;3.62;;;;;;;33.38;50.59;99682.80;2810449;83;21009;-89
2022/06/30 17:23:25;;;;;;;8.18;3.72;;;;;;;33.26;50.61;99681.27;2804184;83;21174;-90
2022/06/30 17:27:27;;;;;;;5.90;2.75;;;;;;;33.18;51.03;99684.67;2806174;84;20996;-87
2022/06/30 17:31:29;;;;;;;4.05;3.08;;;;;;;33.09;51.92;99681.73;2806555;83;21055;-88
2022/06/30 17:35:30;;;;;;;5.42;3.02;;;;;;;33.03;52.49;99682.34;2806629;84;20996;-88
2022/06/30 17:39:32;;;;;;;5.83;3.55;;;;;;;32.89;51.88;99682.20;2809543;84;21012;-89
2022/06/30 17:43:35;;;;;;;3.85;3.42;;;;;;;32.83;52.10;99700.41;2801332;83;20969;-89
2022/06/30 17:47:36;;;;;;;5.92;3.62;;;;;;;32.73;52.78;99705.45;2809147;84;20992;-88
2022/06/30 17:51:37;;;;;;;4.33;3.50;;;;;;;32.68;53.17;99701.38;2799752;83;21027;-87
2022/06/30 17:55:43;;;;;;;3.80;3.08;;;;;;;32.61;53.38;99699.75;2784670;84;21052;-87
2022/06/30 17:59:43;;;;;;;;;;;;;;;32.55;53.89;99701.48;2777574;83;21046;-88
2022/06/30 18:03:45;;;;;;;3.15;2.85;;;;;;;32.45;54.23;99701.81;2775703;84;20136;-88
2022/06/30 18:12:06;;;;;;;6.97;3.02;;;;;;;32.23;54.68;99711.87;2754554;83;21039;-90
2022/06/30 18:16:08;;;;;;;3.80;3.40;;;;;;;32.12;55.39;99708.91;2809629;83;21066;-90
2022/06/30 18:20:12;;;;;;;5.60;3.27;;;;;;;32.00;55.99;99702.38;2798338;84;21693;-90
2022/06/30 18:24:13;;;;;;;4.53;3.33;;;;;;;31.82;56.35;99709.33;2822133;84;21048;-90
2022/06/30 18:28:15;;;;;;;3.50;3.20;;;;;;;31.62;56.55;99714.61;2814858;83;21031;-90
2022/06/30 18:32:16;;;;;;;3.95;3.35;;;;;;;31.45;57.19;99714.13;2788263;83;21019;-89
2022/06/30 18:36:19;;;;;;;4.20;3.50;;;;;;;31.27;57.72;99719.11;2799361;84;21023;-89
2022/06/30 18:40:26;;;;;;;4.90;3.83;;;;;;;31.15;57.76;99734.48;2768252;84;21117;-89
2022/06/30 18:44:26;;;;;;;4.95;4.12;;;;;;;30.98;58.15;99740.83;2814830;84;20996;-90
2022/06/30 18:48:27;;;;;;;4.80;4.05;;;;;;;30.84;58.65;99746.05;2806052;83;21038;-91
2022/06/30 18:52:28;;;;;;;4.70;4.00;;;;;;;30.71;59.43;99746.05;2809125;83;21038;-90
2022/06/30 18:56:36;;;;;;;4.05;3.65;;;;;;;30.58;59.71;99752.88;2803787;83;22200;-90
2022/06/30 19:00:32;;;;;;;6.10;4.37;;;;;;;30.42;60.05;99759.71;2800505;83;21035;-90
2022/06/30 19:04:33;;;;;;;6.28;4.20;;;;;;;30.24;61.36;99760.22;2807272;83;21752;-89
2022/06/30 19:08:35;;;;;;;5.53;5.00;;;;;;;30.04;62.53;99757.13;2785035;83;21071;-90
2022/06/30 19:12:36;;;;;;;8.53;4.95;;;;;;;29.80;63.82;99755.38;2794960;84;21039;-87
2022/06/30 19:16:37;;;;;;;7.80;5.12;;;;;;;29.56;64.41;99759.09;2676222;85;21018;-89
2022/06/30 19:20:38;;;;;;;9.90;5.90;;;;;;;29.32;64.67;99765.76;2754614;84;21100;-89
2022/06/30 19:24:39;;;;;;;5.67;4.20;;;;;;;29.16;65.05;99773.05;2746959;84;21187;-89